sensor_id;sensor_type;location;lat;lon;timestamp;temperature;humidity
5723;DHT22;2886;49.722;8.612;2023-05-10T00:00:50;14.60;99.90
5723;DHT22;2886;49.722;8.612;2023-05-10T00:03:20;14.50;99.90
5723;DHT22;2886;49.722;8.612;2023-05-10T00:05:46;14.60;99.90
5723;DHT22;2886;49.722;8.612;2023-05-10T00:08:11;14.60;99.90
5723;DHT22;2886;49.722;8.612;2023-05-10T00:10:37;14.50;99.90
5723;DHT22;2886;49.722;8.612;2023-05-10T00:13:03;14.50;99.90
5723;DHT22;2886;49.722;8.612;2023-05-10T00:15:28;14.50;99.90
5723;DHT22;2886;49.722;8.612;2023-05-10T00:17:57;14.50;99.90
5723;DHT22;2886;49.722;8.612;2023-05-10T00:20:22;14.50;99.90
5723;DHT22;2886;49.722;8.612;2023-05-10T00:22:49;14.50;99.90
5723;DHT22;2886;49.722;8.612;2023-05-10T00:25:15;14.40;99.90
5723;DHT22;2886;49.722;8.612;2023-05-10T00:27:40;14.40;99.90
5723;DHT22;2886;49.722;8.612;2023-05-10T00:30:07;14.40;99.90
5723;DHT22;2886;49.722;8.612;2023-05-10T00:32:33;14.40;99.90
5723;DHT22;2886;49.722;8.612;2023-05-10T00:34:59;14.40;99.90
5723;DHT22;2886;49.722;8.612;2023-05-10T00:37:24;14.40;99.90
5723;DHT22;2886;49.722;8.612;2023-05-10T00:39:50;14.40;99.90
5723;DHT22;2886;49.722;8.612;2023-05-10T00:42:15;14.40;99.90
5723;DHT22;2886;49.722;8.612;2023-05-10T00:44:41;14.40;99.90
5723;DHT22;2886;49.722;8.612;2023-05-10T00:47:07;14.30;99.90
5723;DHT22;2886;49.722;8.612;2023-05-10T00:49:34;14.30;99.90
5723;DHT22;2886;49.722;8.612;2023-05-10T00:52:00;14.30;99.90
5723;DHT22;2886;49.722;8.612;2023-05-10T00:54:27;14.30;99.90
5723;DHT22;2886;49.722;8.612;2023-05-10T00:56:53;14.30;99.90
5723;DHT22;2886;49.722;8.612;2023-05-10T00:59:18;14.30;99.90
5723;DHT22;2886;49.722;8.612;2023-05-10T01:01:45;14.20;99.90
5723;DHT22;2886;49.722;8.612;2023-05-10T01:04:12;14.30;99.90
5723;DHT22;2886;49.722;8.612;2023-05-10T01:06:39;14.30;99.90
5723;DHT22;2886;49.722;8.612;2023-05-10T01:09:05;14.30;99.90
5723;DHT22;2886;49.722;8.612;2023-05-10T01:11:33;14.20;99.90
5723;DHT22;2886;49.722;8.612;2023-05-10T01:14:02;14.20;99.90
5723;DHT22;2886;49.722;8.612;2023-05-10T01:16:29;14.10;99.90
5723;DHT22;2886;49.722;8.612;2023-05-10T01:18:56;14.20;99.90
5723;DHT22;2886;49.722;8.612;2023-05-10T01:30:00;14.10;99.90
5723;DHT22;2886;49.722;8.612;2023-05-10T01:35:20;14.10;99.90
5723;DHT22;2886;49.722;8.612;2023-05-10T01:38:04;14.10;99.90
5723;DHT22;2886;49.722;8.612;2023-05-10T01:40:40;14.10;99.90
5723;DHT22;2886;49.722;8.612;2023-05-10T01:43:19;14.10;99.90
5723;DHT22;2886;49.722;8.612;2023-05-10T01:48:18;14.10;99.90
5723;DHT22;2886;49.722;8.612;2023-05-10T01:50:46;14.10;99.90
5723;DHT22;2886;49.722;8.612;2023-05-10T01:53:13;14.10;99.90
5723;DHT22;2886;49.722;8.612;2023-05-10T01:55:50;14.10;99.90
5723;DHT22;2886;49.722;8.612;2023-05-10T01:58:22;14.00;99.90
5723;DHT22;2886;49.722;8.612;2023-05-10T02:00:50;14.00;99.90
5723;DHT22;2886;49.722;8.612;2023-05-10T02:03:20;14.00;99.90
5723;DHT22;2886;49.722;8.612;2023-05-10T02:05:48;14.00;99.90
5723;DHT22;2886;49.722;8.612;2023-05-10T02:08:16;14.10;99.90
5723;DHT22;2886;49.722;8.612;2023-05-10T02:10:43;14.10;99.90
5723;DHT22;2886;49.722;8.612;2023-05-10T02:13:11;14.10;99.90
5723;DHT22;2886;49.722;8.612;2023-05-10T02:15:38;14.10;99.90
5723;DHT22;2886;49.722;8.612;2023-05-10T02:18:05;14.10;99.90
5723;DHT22;2886;49.722;8.612;2023-05-10T02:20:32;14.10;99.90
5723;DHT22;2886;49.722;8.612;2023-05-10T02:23:01;14.10;99.90
5723;DHT22;2886;49.722;8.612;2023-05-10T02:25:29;14.10;99.90
5723;DHT22;2886;49.722;8.612;2023-05-10T02:27:56;14.00;99.90
5723;DHT22;2886;49.722;8.612;2023-05-10T02:30:23;14.10;99.90
5723;DHT22;2886;49.722;8.612;2023-05-10T02:32:51;14.10;99.90
5723;DHT22;2886;49.722;8.612;2023-05-10T02:35:18;14.10;99.90
5723;DHT22;2886;49.722;8.612;2023-05-10T02:37:45;14.00;99.90
5723;DHT22;2886;49.722;8.612;2023-05-10T02:40:13;14.00;99.90
5723;DHT22;2886;49.722;8.612;2023-05-10T02:42:41;14.00;99.90
5723;DHT22;2886;49.722;8.612;2023-05-10T02:45:12;13.90;99.90
5723;DHT22;2886;49.722;8.612;2023-05-10T02:47:39;13.90;99.90
5723;DHT22;2886;49.722;8.612;2023-05-10T02:50:05;13.90;99.90
5723;DHT22;2886;49.722;8.612;2023-05-10T02:52:44;13.90;99.90
5723;DHT22;2886;49.722;8.612;2023-05-10T02:55:13;13.90;99.90
5723;DHT22;2886;49.722;8.612;2023-05-10T02:57:51;13.90;99.90
5723;DHT22;2886;49.722;8.612;2023-05-10T03:00:17;13.90;99.90
5723;DHT22;2886;49.722;8.612;2023-05-10T03:02:43;13.80;99.90
5723;DHT22;2886;49.722;8.612;2023-05-10T03:05:09;13.90;99.90
5723;DHT22;2886;49.722;8.612;2023-05-10T03:07:35;13.90;99.90
5723;DHT22;2886;49.722;8.612;2023-05-10T03:10:01;13.90;99.90
5723;DHT22;2886;49.722;8.612;2023-05-10T03:18:04;13.70;99.90
5723;DHT22;2886;49.722;8.612;2023-05-10T03:25:43;13.80;99.90
5723;DHT22;2886;49.722;8.612;2023-05-10T03:28:11;13.70;99.90
5723;DHT22;2886;49.722;8.612;2023-05-10T03:30:37;13.80;99.90
5723;DHT22;2886;49.722;8.612;2023-05-10T03:33:07;13.80;99.90
5723;DHT22;2886;49.722;8.612;2023-05-10T03:35:33;13.80;99.90
5723;DHT22;2886;49.722;8.612;2023-05-10T03:38:27;13.80;99.90
5723;DHT22;2886;49.722;8.612;2023-05-10T03:40:54;13.80;99.90
5723;DHT22;2886;49.722;8.612;2023-05-10T03:43:19;13.90;99.90
5723;DHT22;2886;49.722;8.612;2023-05-10T03:45:45;13.90;99.90
5723;DHT22;2886;49.722;8.612;2023-05-10T03:48:11;13.90;99.90
5723;DHT22;2886;49.722;8.612;2023-05-10T03:50:38;13.90;99.90
5723;DHT22;2886;49.722;8.612;2023-05-10T03:53:04;13.90;99.90
5723;DHT22;2886;49.722;8.612;2023-05-10T03:55:30;13.90;99.90
5723;DHT22;2886;49.722;8.612;2023-05-10T03:58:00;13.90;99.90
5723;DHT22;2886;49.722;8.612;2023-05-10T04:00:26;13.90;99.90
5723;DHT22;2886;49.722;8.612;2023-05-10T04:02:52;13.90;99.90
5723;DHT22;2886;49.722;8.612;2023-05-10T04:05:17;13.90;99.90
5723;DHT22;2886;49.722;8.612;2023-05-10T04:07:43;13.90;99.90
5723;DHT22;2886;49.722;8.612;2023-05-10T04:10:10;13.90;99.90
5723;DHT22;2886;49.722;8.612;2023-05-10T04:12:35;14.00;99.90
5723;DHT22;2886;49.722;8.612;2023-05-10T04:15:01;13.90;99.90
5723;DHT22;2886;49.722;8.612;2023-05-10T04:17:28;13.90;99.90
5723;DHT22;2886;49.722;8.612;2023-05-10T04:19:53;13.90;99.90
5723;DHT22;2886;49.722;8.612;2023-05-10T04:22:20;14.00;99.90
5723;DHT22;2886;49.722;8.612;2023-05-10T04:24:46;13.90;99.90
5723;DHT22;2886;49.722;8.612;2023-05-10T04:27:11;13.90;99.90
5723;DHT22;2886;49.722;8.612;2023-05-10T04:29:38;13.90;99.90
5723;DHT22;2886;49.722;8.612;2023-05-10T04:32:04;13.90;99.90
5723;DHT22;2886;49.722;8.612;2023-05-10T04:34:29;13.90;99.90
5723;DHT22;2886;49.722;8.612;2023-05-10T04:36:55;14.00;99.90
5723;DHT22;2886;49.722;8.612;2023-05-10T04:39:20;13.90;99.90
5723;DHT22;2886;49.722;8.612;2023-05-10T04:41:46;14.00;99.90
5723;DHT22;2886;49.722;8.612;2023-05-10T04:44:12;13.90;99.90
5723;DHT22;2886;49.722;8.612;2023-05-10T04:46:37;13.90;99.90
5723;DHT22;2886;49.722;8.612;2023-05-10T04:49:03;13.90;99.90
5723;DHT22;2886;49.722;8.612;2023-05-10T04:51:28;14.00;99.90
5723;DHT22;2886;49.722;8.612;2023-05-10T04:53:54;14.00;99.90
5723;DHT22;2886;49.722;8.612;2023-05-10T04:56:20;14.00;99.90
5723;DHT22;2886;49.722;8.612;2023-05-10T04:58:47;14.00;99.90
5723;DHT22;2886;49.722;8.612;2023-05-10T05:01:12;14.00;99.90
5723;DHT22;2886;49.722;8.612;2023-05-10T05:03:38;14.00;99.90
5723;DHT22;2886;49.722;8.612;2023-05-10T05:06:04;14.00;99.90
5723;DHT22;2886;49.722;8.612;2023-05-10T05:08:30;14.00;99.90
5723;DHT22;2886;49.722;8.612;2023-05-10T05:10:55;14.00;99.90
5723;DHT22;2886;49.722;8.612;2023-05-10T05:13:21;14.10;99.90
5723;DHT22;2886;49.722;8.612;2023-05-10T05:15:46;14.10;99.90
5723;DHT22;2886;49.722;8.612;2023-05-10T05:18:12;14.10;99.90
5723;DHT22;2886;49.722;8.612;2023-05-10T05:20:38;14.10;99.90
5723;DHT22;2886;49.722;8.612;2023-05-10T05:23:03;14.10;99.90
5723;DHT22;2886;49.722;8.612;2023-05-10T05:25:29;14.10;99.90
5723;DHT22;2886;49.722;8.612;2023-05-10T05:27:54;14.10;99.90
5723;DHT22;2886;49.722;8.612;2023-05-10T05:30:20;14.20;99.90
5723;DHT22;2886;49.722;8.612;2023-05-10T05:32:46;14.20;99.90
5723;DHT22;2886;49.722;8.612;2023-05-10T05:35:12;14.30;99.90
5723;DHT22;2886;49.722;8.612;2023-05-10T05:37:38;14.30;99.90
5723;DHT22;2886;49.722;8.612;2023-05-10T05:40:04;14.30;99.90
5723;DHT22;2886;49.722;8.612;2023-05-10T05:42:31;14.40;99.90
5723;DHT22;2886;49.722;8.612;2023-05-10T05:44:57;14.50;99.90
5723;DHT22;2886;49.722;8.612;2023-05-10T05:47:22;14.60;99.90
5723;DHT22;2886;49.722;8.612;2023-05-10T05:49:48;14.70;99.90
5723;DHT22;2886;49.722;8.612;2023-05-10T05:52:13;14.70;99.90
5723;DHT22;2886;49.722;8.612;2023-05-10T05:54:39;14.80;99.90
5723;DHT22;2886;49.722;8.612;2023-05-10T05:57:05;14.80;99.90
5723;DHT22;2886;49.722;8.612;2023-05-10T05:59:31;14.90;99.90
5723;DHT22;2886;49.722;8.612;2023-05-10T06:01:56;15.00;99.90
5723;DHT22;2886;49.722;8.612;2023-05-10T06:04:22;15.00;99.90
5723;DHT22;2886;49.722;8.612;2023-05-10T06:06:47;15.00;99.90
5723;DHT22;2886;49.722;8.612;2023-05-10T06:09:13;15.10;99.90
5723;DHT22;2886;49.722;8.612;2023-05-10T06:11:39;15.10;99.90
5723;DHT22;2886;49.722;8.612;2023-05-10T06:14:05;15.20;99.90
5723;DHT22;2886;49.722;8.612;2023-05-10T06:16:32;15.30;99.90
5723;DHT22;2886;49.722;8.612;2023-05-10T06:18:58;15.40;99.90
5723;DHT22;2886;49.722;8.612;2023-05-10T06:21:23;15.40;99.90
5723;DHT22;2886;49.722;8.612;2023-05-10T06:23:49;15.50;99.90
5723;DHT22;2886;49.722;8.612;2023-05-10T06:26:15;15.60;99.90
5723;DHT22;2886;49.722;8.612;2023-05-10T06:28:41;15.60;99.90
5723;DHT22;2886;49.722;8.612;2023-05-10T06:31:07;15.70;99.90
5723;DHT22;2886;49.722;8.612;2023-05-10T06:33:33;15.70;99.90
5723;DHT22;2886;49.722;8.612;2023-05-10T06:35:59;15.80;99.90
5723;DHT22;2886;49.722;8.612;2023-05-10T06:38:24;15.90;99.90
5723;DHT22;2886;49.722;8.612;2023-05-10T06:40:50;15.90;99.90
5723;DHT22;2886;49.722;8.612;2023-05-10T06:43:16;16.00;99.90
5723;DHT22;2886;49.722;8.612;2023-05-10T06:45:42;16.00;99.90
5723;DHT22;2886;49.722;8.612;2023-05-10T06:48:07;16.10;99.90
5723;DHT22;2886;49.722;8.612;2023-05-10T06:50:33;16.10;99.90
5723;DHT22;2886;49.722;8.612;2023-05-10T06:53:00;16.20;99.90
5723;DHT22;2886;49.722;8.612;2023-05-10T06:55:25;16.20;99.90
5723;DHT22;2886;49.722;8.612;2023-05-10T06:57:52;16.40;99.90
5723;DHT22;2886;49.722;8.612;2023-05-10T07:00:18;16.50;99.90
5723;DHT22;2886;49.722;8.612;2023-05-10T07:02:45;16.60;99.90
5723;DHT22;2886;49.722;8.612;2023-05-10T07:05:11;16.60;99.90
5723;DHT22;2886;49.722;8.612;2023-05-10T07:07:38;16.60;99.90
5723;DHT22;2886;49.722;8.612;2023-05-10T07:10:04;16.60;99.90
5723;DHT22;2886;49.722;8.612;2023-05-10T07:12:30;16.50;99.90
5723;DHT22;2886;49.722;8.612;2023-05-10T07:14:56;16.60;99.90
5723;DHT22;2886;49.722;8.612;2023-05-10T07:17:22;16.60;99.90
5723;DHT22;2886;49.722;8.612;2023-05-10T07:19:48;16.60;99.90
5723;DHT22;2886;49.722;8.612;2023-05-10T07:22:14;16.70;99.90
5723;DHT22;2886;49.722;8.612;2023-05-10T07:24:40;16.80;99.90
5723;DHT22;2886;49.722;8.612;2023-05-10T07:27:06;16.90;99.90
5723;DHT22;2886;49.722;8.612;2023-05-10T07:29:32;17.10;99.90
5723;DHT22;2886;49.722;8.612;2023-05-10T07:31:57;17.10;99.90
5723;DHT22;2886;49.722;8.612;2023-05-10T07:34:23;17.20;99.90
5723;DHT22;2886;49.722;8.612;2023-05-10T07:36:48;17.30;99.90
5723;DHT22;2886;49.722;8.612;2023-05-10T07:39:14;17.50;99.90
5723;DHT22;2886;49.722;8.612;2023-05-10T07:41:40;17.60;99.90
5723;DHT22;2886;49.722;8.612;2023-05-10T07:44:06;17.70;99.90
5723;DHT22;2886;49.722;8.612;2023-05-10T07:46:31;17.80;99.90
5723;DHT22;2886;49.722;8.612;2023-05-10T07:48:57;18.00;99.90
5723;DHT22;2886;49.722;8.612;2023-05-10T07:51:22;18.00;99.90
5723;DHT22;2886;49.722;8.612;2023-05-10T07:53:48;17.90;99.90
5723;DHT22;2886;49.722;8.612;2023-05-10T07:56:25;17.80;99.90
5723;DHT22;2886;49.722;8.612;2023-05-10T07:58:53;17.70;99.90
5723;DHT22;2886;49.722;8.612;2023-05-10T08:01:19;17.80;99.90
5723;DHT22;2886;49.722;8.612;2023-05-10T08:03:45;17.90;99.90
5723;DHT22;2886;49.722;8.612;2023-05-10T08:06:11;18.00;99.90
5723;DHT22;2886;49.722;8.612;2023-05-10T08:08:36;18.00;99.90
5723;DHT22;2886;49.722;8.612;2023-05-10T08:11:03;17.90;99.90
5723;DHT22;2886;49.722;8.612;2023-05-10T08:13:28;17.80;99.90
5723;DHT22;2886;49.722;8.612;2023-05-10T08:15:54;17.70;99.90
5723;DHT22;2886;49.722;8.612;2023-05-10T08:18:20;17.80;99.90
5723;DHT22;2886;49.722;8.612;2023-05-10T08:20:46;17.90;99.90
5723;DHT22;2886;49.722;8.612;2023-05-10T08:23:14;18.00;99.90
5723;DHT22;2886;49.722;8.612;2023-05-10T08:25:41;18.00;99.90
5723;DHT22;2886;49.722;8.612;2023-05-10T08:28:06;18.00;99.90
5723;DHT22;2886;49.722;8.612;2023-05-10T08:30:32;18.00;99.90
5723;DHT22;2886;49.722;8.612;2023-05-10T08:32:58;18.00;99.90
5723;DHT22;2886;49.722;8.612;2023-05-10T08:35:23;18.10;99.90
5723;DHT22;2886;49.722;8.612;2023-05-10T08:37:50;18.20;99.90
5723;DHT22;2886;49.722;8.612;2023-05-10T08:40:16;18.30;99.90
5723;DHT22;2886;49.722;8.612;2023-05-10T08:42:50;18.40;99.90
5723;DHT22;2886;49.722;8.612;2023-05-10T08:45:17;18.60;99.90
5723;DHT22;2886;49.722;8.612;2023-05-10T08:47:44;18.70;99.90
5723;DHT22;2886;49.722;8.612;2023-05-10T08:50:10;18.80;99.90
5723;DHT22;2886;49.722;8.612;2023-05-10T08:52:38;19.10;99.90
5723;DHT22;2886;49.722;8.612;2023-05-10T08:55:05;19.40;99.90
5723;DHT22;2886;49.722;8.612;2023-05-10T08:57:31;19.80;99.90
5723;DHT22;2886;49.722;8.612;2023-05-10T08:59:57;20.10;97.90
5723;DHT22;2886;49.722;8.612;2023-05-10T09:02:23;20.20;96.40
5723;DHT22;2886;49.722;8.612;2023-05-10T09:04:49;20.30;95.50
5723;DHT22;2886;49.722;8.612;2023-05-10T09:07:15;20.40;93.30
5723;DHT22;2886;49.722;8.612;2023-05-10T09:09:41;20.40;93.10
5723;DHT22;2886;49.722;8.612;2023-05-10T09:12:07;20.40;91.50
5723;DHT22;2886;49.722;8.612;2023-05-10T09:14:36;20.30;91.80
5723;DHT22;2886;49.722;8.612;2023-05-10T09:17:03;20.20;91.70
5723;DHT22;2886;49.722;8.612;2023-05-10T09:19:29;20.20;91.50
5723;DHT22;2886;49.722;8.612;2023-05-10T09:21:55;20.20;92.20
5723;DHT22;2886;49.722;8.612;2023-05-10T09:24:25;20.10;89.00
5723;DHT22;2886;49.722;8.612;2023-05-10T09:26:52;19.80;88.90
5723;DHT22;2886;49.722;8.612;2023-05-10T09:29:18;19.50;92.60
5723;DHT22;2886;49.722;8.612;2023-05-10T09:31:48;19.40;92.80
5723;DHT22;2886;49.722;8.612;2023-05-10T09:34:28;19.30;93.70
5723;DHT22;2886;49.722;8.612;2023-05-10T09:36:55;19.30;94.40
5723;DHT22;2886;49.722;8.612;2023-05-10T09:39:33;19.60;91.60
5723;DHT22;2886;49.722;8.612;2023-05-10T09:42:03;19.90;90.90
5723;DHT22;2886;49.722;8.612;2023-05-10T09:44:31;20.30;87.90
5723;DHT22;2886;49.722;8.612;2023-05-10T09:46:57;20.70;73.20
5723;DHT22;2886;49.722;8.612;2023-05-10T09:49:22;20.70;72.30
5723;DHT22;2886;49.722;8.612;2023-05-10T09:52:01;20.70;69.70
5723;DHT22;2886;49.722;8.612;2023-05-10T09:54:27;20.50;74.10
5723;DHT22;2886;49.722;8.612;2023-05-10T09:56:53;20.40;74.20
5723;DHT22;2886;49.722;8.612;2023-05-10T09:59:18;20.70;75.40
5723;DHT22;2886;49.722;8.612;2023-05-10T10:01:50;20.90;74.90
5723;DHT22;2886;49.722;8.612;2023-05-10T10:04:17;21.00;70.80
5723;DHT22;2886;49.722;8.612;2023-05-10T10:06:42;21.00;67.80
5723;DHT22;2886;49.722;8.612;2023-05-10T10:09:08;20.40;71.70
5723;DHT22;2886;49.722;8.612;2023-05-10T10:11:35;19.90;69.70
5723;DHT22;2886;49.722;8.612;2023-05-10T10:14:02;19.70;70.50
5723;DHT22;2886;49.722;8.612;2023-05-10T10:16:31;20.00;67.30
5723;DHT22;2886;49.722;8.612;2023-05-10T10:18:57;20.30;67.30
5723;DHT22;2886;49.722;8.612;2023-05-10T10:21:23;20.50;67.60
5723;DHT22;2886;49.722;8.612;2023-05-10T10:23:49;20.80;64.40
5723;DHT22;2886;49.722;8.612;2023-05-10T10:26:15;21.20;63.80
5723;DHT22;2886;49.722;8.612;2023-05-10T10:29:00;21.50;60.50
5723;DHT22;2886;49.722;8.612;2023-05-10T10:31:36;21.70;60.70
5723;DHT22;2886;49.722;8.612;2023-05-10T10:34:09;22.00;61.60
5723;DHT22;2886;49.722;8.612;2023-05-10T10:36:46;22.10;61.00
5723;DHT22;2886;49.722;8.612;2023-05-10T10:39:11;21.90;60.40
5723;DHT22;2886;49.722;8.612;2023-05-10T10:41:40;21.70;61.30
5723;DHT22;2886;49.722;8.612;2023-05-10T10:47:21;21.90;61.10
5723;DHT22;2886;49.722;8.612;2023-05-10T10:49:52;22.10;61.20
5723;DHT22;2886;49.722;8.612;2023-05-10T10:52:30;22.00;59.00
5723;DHT22;2886;49.722;8.612;2023-05-10T10:55:18;21.80;60.00
5723;DHT22;2886;49.722;8.612;2023-05-10T10:57:57;22.00;58.40
5723;DHT22;2886;49.722;8.612;2023-05-10T11:00:32;22.10;58.10
5723;DHT22;2886;49.722;8.612;2023-05-10T11:03:09;22.40;57.30
5723;DHT22;2886;49.722;8.612;2023-05-10T11:05:46;22.60;56.90
5723;DHT22;2886;49.722;8.612;2023-05-10T11:08:13;22.70;57.60
5723;DHT22;2886;49.722;8.612;2023-05-10T11:10:39;22.80;55.20
5723;DHT22;2886;49.722;8.612;2023-05-10T11:13:07;22.90;54.50
5723;DHT22;2886;49.722;8.612;2023-05-10T11:15:38;22.90;53.70
5723;DHT22;2886;49.722;8.612;2023-05-10T11:18:40;22.60;54.30
5723;DHT22;2886;49.722;8.612;2023-05-10T11:21:09;22.60;54.30
5723;DHT22;2886;49.722;8.612;2023-05-10T11:23:54;22.20;54.90
5723;DHT22;2886;49.722;8.612;2023-05-10T11:26:23;21.80;54.10
5723;DHT22;2886;49.722;8.612;2023-05-10T11:28:52;21.70;55.20
5723;DHT22;2886;49.722;8.612;2023-05-10T11:31:19;21.60;54.20
5723;DHT22;2886;49.722;8.612;2023-05-10T11:33:47;21.60;56.30
5723;DHT22;2886;49.722;8.612;2023-05-10T11:36:21;21.80;53.20
5723;DHT22;2886;49.722;8.612;2023-05-10T11:38:48;22.00;52.00
5723;DHT22;2886;49.722;8.612;2023-05-10T11:41:17;21.80;50.60
5723;DHT22;2886;49.722;8.612;2023-05-10T11:43:46;21.00;54.70
5723;DHT22;2886;49.722;8.612;2023-05-10T11:46:12;21.10;55.70
5723;DHT22;2886;49.722;8.612;2023-05-10T11:48:39;21.40;55.00
5723;DHT22;2886;49.722;8.612;2023-05-10T11:51:06;21.60;52.90
5723;DHT22;2886;49.722;8.612;2023-05-10T11:53:33;21.80;52.70
5723;DHT22;2886;49.722;8.612;2023-05-10T11:56:06;22.00;51.30
5723;DHT22;2886;49.722;8.612;2023-05-10T11:58:32;21.80;50.00
5723;DHT22;2886;49.722;8.612;2023-05-10T12:01:01;21.60;50.30
5723;DHT22;2886;49.722;8.612;2023-05-10T12:03:28;21.70;52.00
5723;DHT22;2886;49.722;8.612;2023-05-10T12:05:55;21.80;51.90
5723;DHT22;2886;49.722;8.612;2023-05-10T12:08:26;21.70;51.60
5723;DHT22;2886;49.722;8.612;2023-05-10T12:10:53;22.00;50.80
5723;DHT22;2886;49.722;8.612;2023-05-10T12:13:20;22.40;49.40
5723;DHT22;2886;49.722;8.612;2023-05-10T12:15:46;22.60;49.80
5723;DHT22;2886;49.722;8.612;2023-05-10T12:18:13;22.90;48.60
5723;DHT22;2886;49.722;8.612;2023-05-10T12:20:39;23.30;46.80
5723;DHT22;2886;49.722;8.612;2023-05-10T12:23:07;23.40;46.60
5723;DHT22;2886;49.722;8.612;2023-05-10T12:25:35;23.60;45.30
5723;DHT22;2886;49.722;8.612;2023-05-10T12:28:04;23.60;45.40
5723;DHT22;2886;49.722;8.612;2023-05-10T12:30:32;23.50;48.10
5723;DHT22;2886;49.722;8.612;2023-05-10T12:33:11;23.50;46.70
5723;DHT22;2886;49.722;8.612;2023-05-10T12:35:49;23.60;46.00
5723;DHT22;2886;49.722;8.612;2023-05-10T12:38:35;23.40;43.60
5723;DHT22;2886;49.722;8.612;2023-05-10T12:41:04;23.10;45.20
5723;DHT22;2886;49.722;8.612;2023-05-10T12:43:31;22.90;46.10
5723;DHT22;2886;49.722;8.612;2023-05-10T12:45:57;22.60;46.20
5723;DHT22;2886;49.722;8.612;2023-05-10T12:48:22;22.60;49.50
5723;DHT22;2886;49.722;8.612;2023-05-10T12:50:48;22.60;48.80
5723;DHT22;2886;49.722;8.612;2023-05-10T12:53:14;22.70;50.10
5723;DHT22;2886;49.722;8.612;2023-05-10T12:55:44;22.80;51.60
5723;DHT22;2886;49.722;8.612;2023-05-10T12:58:09;22.90;49.90
5723;DHT22;2886;49.722;8.612;2023-05-10T13:00:35;22.80;49.00
5723;DHT22;2886;49.722;8.612;2023-05-10T13:03:04;22.60;51.30
5723;DHT22;2886;49.722;8.612;2023-05-10T13:05:31;22.30;51.80
5723;DHT22;2886;49.722;8.612;2023-05-10T13:07:56;22.20;51.70
5723;DHT22;2886;49.722;8.612;2023-05-10T13:10:22;22.10;52.80
5723;DHT22;2886;49.722;8.612;2023-05-10T13:12:49;21.90;53.90
5723;DHT22;2886;49.722;8.612;2023-05-10T13:15:14;21.90;53.60
5723;DHT22;2886;49.722;8.612;2023-05-10T13:17:40;21.80;54.10
5723;DHT22;2886;49.722;8.612;2023-05-10T13:20:08;21.90;52.90
5723;DHT22;2886;49.722;8.612;2023-05-10T13:22:35;21.90;52.20
5723;DHT22;2886;49.722;8.612;2023-05-10T13:25:01;22.00;51.80
5723;DHT22;2886;49.722;8.612;2023-05-10T13:27:26;22.20;50.20
5723;DHT22;2886;49.722;8.612;2023-05-10T13:29:52;22.20;50.20
5723;DHT22;2886;49.722;8.612;2023-05-10T13:32:17;22.40;48.60
5723;DHT22;2886;49.722;8.612;2023-05-10T13:34:43;22.50;47.50
5723;DHT22;2886;49.722;8.612;2023-05-10T13:37:09;22.60;46.20
5723;DHT22;2886;49.722;8.612;2023-05-10T13:39:34;22.70;46.00
5723;DHT22;2886;49.722;8.612;2023-05-10T13:42:03;22.60;45.90
5723;DHT22;2886;49.722;8.612;2023-05-10T13:44:28;22.70;46.20
5723;DHT22;2886;49.722;8.612;2023-05-10T13:46:54;22.40;45.80
5723;DHT22;2886;49.722;8.612;2023-05-10T13:49:20;22.10;47.70
5723;DHT22;2886;49.722;8.612;2023-05-10T13:51:47;21.90;47.50
5723;DHT22;2886;49.722;8.612;2023-05-10T13:54:13;21.80;48.20
5723;DHT22;2886;49.722;8.612;2023-05-10T13:56:39;21.90;49.00
5723;DHT22;2886;49.722;8.612;2023-05-10T13:59:05;22.20;50.40
5723;DHT22;2886;49.722;8.612;2023-05-10T14:01:31;22.60;50.50
5723;DHT22;2886;49.722;8.612;2023-05-10T14:03:57;22.80;47.60
5723;DHT22;2886;49.722;8.612;2023-05-10T14:06:22;22.80;48.50
5723;DHT22;2886;49.722;8.612;2023-05-10T14:08:48;23.00;48.20
5723;DHT22;2886;49.722;8.612;2023-05-10T14:11:14;23.00;47.30
5723;DHT22;2886;49.722;8.612;2023-05-10T14:13:40;22.80;46.80
5723;DHT22;2886;49.722;8.612;2023-05-10T14:16:05;22.70;48.90
5723;DHT22;2886;49.722;8.612;2023-05-10T14:18:31;22.60;49.90
5723;DHT22;2886;49.722;8.612;2023-05-10T14:20:57;22.30;50.00
5723;DHT22;2886;49.722;8.612;2023-05-10T14:23:22;22.10;51.10
5723;DHT22;2886;49.722;8.612;2023-05-10T14:25:54;22.00;50.80
5723;DHT22;2886;49.722;8.612;2023-05-10T14:28:20;22.00;51.20
5723;DHT22;2886;49.722;8.612;2023-05-10T14:30:46;22.10;51.30
5723;DHT22;2886;49.722;8.612;2023-05-10T14:33:12;22.10;50.70
5723;DHT22;2886;49.722;8.612;2023-05-10T14:35:38;22.20;51.30
5723;DHT22;2886;49.722;8.612;2023-05-10T14:38:04;22.10;50.30
5723;DHT22;2886;49.722;8.612;2023-05-10T14:40:30;22.00;50.70
5723;DHT22;2886;49.722;8.612;2023-05-10T14:42:55;22.00;49.70
5723;DHT22;2886;49.722;8.612;2023-05-10T14:45:21;22.00;48.20
5723;DHT22;2886;49.722;8.612;2023-05-10T14:47:47;21.90;49.40
5723;DHT22;2886;49.722;8.612;2023-05-10T14:50:13;21.90;49.50
5723;DHT22;2886;49.722;8.612;2023-05-10T14:52:39;21.80;49.30
5723;DHT22;2886;49.722;8.612;2023-05-10T14:55:05;21.70;50.00
5723;DHT22;2886;49.722;8.612;2023-05-10T14:57:31;21.60;48.10
5723;DHT22;2886;49.722;8.612;2023-05-10T14:59:57;21.70;48.30
5723;DHT22;2886;49.722;8.612;2023-05-10T15:02:23;21.60;47.70
5723;DHT22;2886;49.722;8.612;2023-05-10T15:04:49;21.40;49.50
5723;DHT22;2886;49.722;8.612;2023-05-10T15:07:15;21.30;49.20
5723;DHT22;2886;49.722;8.612;2023-05-10T15:09:42;21.30;49.60
5723;DHT22;2886;49.722;8.612;2023-05-10T15:12:08;21.40;50.00
5723;DHT22;2886;49.722;8.612;2023-05-10T15:14:33;21.50;48.70
5723;DHT22;2886;49.722;8.612;2023-05-10T15:17:02;21.60;47.60
5723;DHT22;2886;49.722;8.612;2023-05-10T15:19:27;21.60;45.90
5723;DHT22;2886;49.722;8.612;2023-05-10T15:21:54;21.50;46.30
5723;DHT22;2886;49.722;8.612;2023-05-10T15:24:21;21.60;46.30
5723;DHT22;2886;49.722;8.612;2023-05-10T15:26:47;21.60;47.00
5723;DHT22;2886;49.722;8.612;2023-05-10T15:31:50;21.50;47.30
5723;DHT22;2886;49.722;8.612;2023-05-10T15:34:17;21.50;46.20
5723;DHT22;2886;49.722;8.612;2023-05-10T15:36:43;21.50;46.60
5723;DHT22;2886;49.722;8.612;2023-05-10T15:39:10;21.50;47.90
5723;DHT22;2886;49.722;8.612;2023-05-10T15:41:35;21.50;47.70
5723;DHT22;2886;49.722;8.612;2023-05-10T15:44:01;21.50;47.30
5723;DHT22;2886;49.722;8.612;2023-05-10T15:46:28;21.50;47.00
5723;DHT22;2886;49.722;8.612;2023-05-10T15:48:53;21.50;47.20
5723;DHT22;2886;49.722;8.612;2023-05-10T15:51:19;21.40;47.60
5723;DHT22;2886;49.722;8.612;2023-05-10T15:53:45;21.30;48.30
5723;DHT22;2886;49.722;8.612;2023-05-10T15:56:11;21.30;47.40
5723;DHT22;2886;49.722;8.612;2023-05-10T15:58:40;21.30;47.70
5723;DHT22;2886;49.722;8.612;2023-05-10T16:01:06;21.30;46.90
5723;DHT22;2886;49.722;8.612;2023-05-10T16:03:35;21.40;47.30
5723;DHT22;2886;49.722;8.612;2023-05-10T16:06:02;21.40;47.40
5723;DHT22;2886;49.722;8.612;2023-05-10T16:08:28;21.40;48.00
5723;DHT22;2886;49.722;8.612;2023-05-10T16:10:55;21.50;45.90
5723;DHT22;2886;49.722;8.612;2023-05-10T16:13:21;21.50;46.20
5723;DHT22;2886;49.722;8.612;2023-05-10T16:15:47;21.60;46.20
5723;DHT22;2886;49.722;8.612;2023-05-10T16:18:13;21.50;45.80
5723;DHT22;2886;49.722;8.612;2023-05-10T16:20:39;21.20;45.40
5723;DHT22;2886;49.722;8.612;2023-05-10T16:23:06;21.10;46.90
5723;DHT22;2886;49.722;8.612;2023-05-10T16:25:32;21.00;45.50
5723;DHT22;2886;49.722;8.612;2023-05-10T16:27:59;21.00;45.40
5723;DHT22;2886;49.722;8.612;2023-05-10T16:30:24;21.00;45.50
5723;DHT22;2886;49.722;8.612;2023-05-10T16:32:52;21.10;45.80